Wingate, United Kingdom
Current Conditions -  °F | °C
As of 5:20 PM on Friday 19 Dec 2014 (Local Time) from EGNV Reporting Station
Few Clouds Few Clouds  
Wind Chill: 33°   Ceiling: Unl
Heat Index: 43°   Visibility: 6mi
Dew Point: 34°   Wind: 26mph
Humidity: 70%   Direction: 260°W
Pressure: 29.83"   Gusts: 38mph
Location:  54.73°N, 1.38°W
Report Text: EGNV 191720Z 26023G33KT 9999 FEW030 06/01 Q1010
Loading
Personal Weather Stations






























Interactive Weather Map New forecast layout! Learn more

10-Day Weather Forecast

Advertisements
Track Severe Weather on mobile